Kisakata, Japan
Current Conditions -  °F | °C
As of 7:27 PM on Thursday 18 Dec 2014 (Local Time) from RJSY Reporting Station
Snow Showers Snow Showers  
Wind Chill: 23°   Ceiling: 1000
Heat Index: 34°   Visibility: 1.2mi
Dew Point: 28°   Wind: 17mph
Humidity: 81%   Direction: 300°WNW
Pressure: 30.12"   Gusts: 29mph
Location:  39.22°N, 139.9°E
Report Text: RJSY 181027Z 30015G25KT 270V360 2000 -SHSN FEW006 BKN010 01/M02 Q1020 RMK 1ST006 7ST010 A3013
Loading
Personal Weather Stations






























Interactive Weather Map New forecast layout! Learn more

10-Day Weather Forecast

Advertisements
Track Severe Weather on mobile